Time;durP1;ratioP1;P1;durP2;ratioP2;P2;SDS_P1;SDS_P2;PMS_P1;PMS_P2;Temp;Humidity;BMP_temperature;BMP_pressure;BME280_temperature;BME280_humidity;BME280_pressure;Samples;Min_cycle;Max_cycle;Signal;HPM_P1;HPM_P2
2021/09/09 00:01:47;;;;;;;19.00;11.73;;;18.00;99.90;;;;;;5052768;28;20298;-79
2021/09/09 00:04:14;;;;;;;14.80;10.77;;;18.10;99.90;;;;;;5052545;28;20295;-78
2021/09/09 00:06:41;;;;;;;16.43;11.00;;;18.00;99.90;;;;;;5054527;28;20258;-78
2021/09/09 00:09:08;;;;;;;17.57;10.90;;;17.80;99.90;;;;;;5056058;28;20201;-79
2021/09/09 00:11:35;;;;;;;16.87;11.17;;;17.70;99.90;;;;;;5058136;28;20604;-79
2021/09/09 00:14:02;;;;;;;19.07;11.10;;;17.60;99.90;;;;;;5054497;28;20235;-78
2021/09/09 00:16:30;;;;;;;16.03;10.63;;;17.70;99.90;;;;;;5052746;28;20673;-79
2021/09/09 00:18:57;;;;;;;18.17;11.33;;;17.60;99.90;;;;;;5052603;28;20931;-78
2021/09/09 00:21:24;;;;;;;19.60;10.80;;;17.60;99.90;;;;;;5056017;28;20223;-78
2021/09/09 00:23:51;;;;;;;18.43;10.97;;;17.50;99.90;;;;;;5051905;28;20556;-79
2021/09/09 00:26:18;;;;;;;14.90;10.53;;;17.60;99.90;;;;;;5056847;28;20235;-79
2021/09/09 00:28:45;;;;;;;14.70;11.00;;;17.60;99.90;;;;;;5053955;28;20200;-78
2021/09/09 00:31:11;;;;;;;19.27;11.07;;;17.60;99.90;;;;;;5058035;28;20310;-78
2021/09/09 00:33:40;;;;;;;15.60;10.77;;;17.60;99.90;;;;;;5052840;28;20576;-79
2021/09/09 00:36:07;;;;;;;15.70;10.77;;;17.60;99.90;;;;;;5053406;28;20338;-79
2021/09/09 00:38:34;;;;;;;16.50;11.60;;;17.50;99.90;;;;;;5052388;28;20203;-78
2021/09/09 00:41:01;;;;;;;19.93;11.87;;;17.50;99.90;;;;;;5052056;28;20218;-79
2021/09/09 00:43:28;;;;;;;14.37;10.83;;;17.60;99.90;;;;;;5054076;28;20207;-78
2021/09/09 00:45:56;;;;;;;18.07;11.30;;;17.70;99.90;;;;;;5053834;28;20208;-79
2021/09/09 00:48:24;;;;;;;17.40;10.30;;;17.70;99.90;;;;;;5057595;28;20209;-79
2021/09/09 00:50:53;;;;;;;16.23;11.93;;;17.80;99.90;;;;;;5055727;28;20383;-79
2021/09/09 00:53:20;;;;;;;15.37;11.30;;;17.90;99.90;;;;;;5055569;28;20228;-79
2021/09/09 00:55:49;;;;;;;16.10;10.03;;;17.90;99.90;;;;;;5060206;28;20204;-78
2021/09/09 00:58:17;;;;;;;20.20;10.07;;;17.90;99.90;;;;;;5057553;28;20291;-79
2021/09/09 01:00:44;;;;;;;16.00;10.07;;;17.90;99.90;;;;;;5058458;28;20222;-79
2021/09/09 01:03:10;;;;;;;15.80;10.73;;;17.80;99.90;;;;;;5056717;28;20196;-79
2021/09/09 01:05:38;;;;;;;12.83;9.63;;;17.70;99.90;;;;;;5059021;28;20295;-78
2021/09/09 01:08:07;;;;;;;14.07;10.13;;;17.70;99.90;;;;;;5060089;28;20619;-78
2021/09/09 01:10:35;;;;;;;15.07;10.27;;;17.80;99.90;;;;;;5060463;28;20216;-78
2021/09/09 01:13:02;;;;;;;16.70;10.07;;;17.80;99.90;;;;;;5061113;28;20653;-78
2021/09/09 01:15:28;;;;;;;16.40;10.73;;;17.90;99.90;;;;;;5059386;28;20204;-78
2021/09/09 01:17:55;;;;;;;15.50;11.07;;;17.80;99.90;;;;;;5062689;28;20234;-78
2021/09/09 01:20:22;;;;;;;17.83;10.57;;;17.80;99.90;;;;;;5058862;28;20210;-78
2021/09/09 01:22:49;;;;;;;17.53;10.57;;;17.70;99.90;;;;;;5062658;28;20239;-78
2021/09/09 01:25:17;;;;;;;14.27;10.90;;;17.70;99.90;;;;;;5058933;28;20725;-79
2021/09/09 01:27:44;;;;;;;15.50;10.83;;;17.70;99.90;;;;;;5061317;28;20208;-79
2021/09/09 01:30:12;;;;;;;14.10;10.17;;;17.70;99.90;;;;;;5059782;28;20220;-79
2021/09/09 01:32:38;;;;;;;15.20;10.00;;;17.70;99.90;;;;;;5059348;28;20222;-79
2021/09/09 01:35:06;;;;;;;17.80;10.67;;;17.70;99.90;;;;;;5061177;28;20206;-78
2021/09/09 01:37:33;;;;;;;16.17;9.77;;;17.70;99.90;;;;;;5057426;28;20287;-78
2021/09/09 01:40:00;;;;;;;12.73;8.40;;;17.60;99.90;;;;;;5057878;28;20246;-78
2021/09/09 01:42:28;;;;;;;13.80;9.43;;;17.60;99.90;;;;;;5055714;28;20283;-78
2021/09/09 01:44:55;;;;;;;12.03;8.97;;;17.70;99.90;;;;;;5055939;28;20204;-78
2021/09/09 01:47:22;;;;;;;11.70;8.73;;;17.80;99.90;;;;;;5054625;28;20200;-78
2021/09/09 01:49:49;;;;;;;12.33;8.70;;;17.90;99.90;;;;;;5056188;28;20200;-78
2021/09/09 01:52:16;;;;;;;12.87;8.40;;;18.00;99.90;;;;;;5056542;28;20311;-79
2021/09/09 01:54:42;;;;;;;9.70;8.03;;;18.00;99.90;;;;;;5055169;28;20271;-78
2021/09/09 01:57:09;;;;;;;14.67;8.60;;;18.10;99.90;;;;;;5055015;28;20302;-78
2021/09/09 01:59:38;;;;;;;12.57;8.23;;;17.90;99.90;;;;;;5053700;28;20296;-78
2021/09/09 02:02:05;;;;;;;15.40;8.83;;;17.90;99.90;;;;;;5057509;28;20287;-78
2021/09/09 02:04:32;;;;;;;14.13;7.80;;;18.10;99.90;;;;;;5059528;28;20210;-78
2021/09/09 02:06:59;;;;;;;11.97;8.03;;;18.10;99.90;;;;;;5055992;28;20291;-78
2021/09/09 02:09:25;;;;;;;13.17;8.50;;;18.10;99.90;;;;;;5072660;28;20691;-78
2021/09/09 02:11:52;;;;;;;11.50;7.87;;;18.10;99.90;;;;;;5072756;28;20232;-78
2021/09/09 02:14:19;;;;;;;9.13;7.67;;;18.20;99.90;;;;;;5071224;28;20282;-79
2021/09/09 02:16:47;;;;;;;13.90;7.13;;;18.20;99.90;;;;;;5072344;28;20223;-79
2021/09/09 02:19:14;;;;;;;11.53;7.70;;;18.30;99.90;;;;;;5071071;28;20540;-79
2021/09/09 02:21:41;;;;;;;12.97;8.10;;;18.30;99.90;;;;;;5072318;28;20663;-79
2021/09/09 02:24:08;;;;;;;12.60;7.93;;;18.30;99.90;;;;;;5070538;28;20231;-79
2021/09/09 02:26:35;;;;;;;11.33;7.73;;;18.20;99.90;;;;;;5072543;28;20253;-79
2021/09/09 02:29:02;;;;;;;9.77;7.30;;;18.20;99.90;;;;;;5071702;28;20214;-79
2021/09/09 02:31:28;;;;;;;13.27;7.60;;;18.10;99.90;;;;;;5071881;28;20245;-78
2021/09/09 02:33:57;;;;;;;13.30;7.77;;;18.10;99.90;;;;;;5072173;28;20314;-79
2021/09/09 02:36:23;;;;;;;10.00;7.33;;;18.00;99.90;;;;;;5070608;28;20202;-79
2021/09/09 02:38:50;;;;;;;9.37;7.63;;;18.10;99.90;;;;;;5072596;28;20249;-79
2021/09/09 02:41:17;;;;;;;13.53;7.40;;;18.10;99.90;;;;;;5070678;28;20279;-79
2021/09/09 02:43:44;;;;;;;11.40;7.07;;;18.20;99.90;;;;;;5072137;28;20286;-79
2021/09/09 02:46:11;;;;;;;8.50;7.13;;;18.20;99.90;;;;;;5070636;28;20294;-78
2021/09/09 02:48:38;;;;;;;12.53;7.23;;;18.30;99.90;;;;;;5070605;28;20307;-80
2021/09/09 02:51:06;;;;;;;11.50;7.80;;;18.30;99.90;;;;;;5067946;28;20261;-79
2021/09/09 02:53:33;;;;;;;14.17;8.27;;;18.30;99.90;;;;;;5073345;28;20271;-79
2021/09/09 02:56:00;;;;;;;11.27;6.83;;;18.30;99.90;;;;;;5073555;28;20200;-80
2021/09/09 02:58:26;;;;;;;11.47;7.77;;;18.30;99.90;;;;;;5073083;28;20200;-79
2021/09/09 03:00:53;;;;;;;9.33;7.50;;;18.40;99.90;;;;;;5072954;28;20286;-78
2021/09/09 03:03:21;;;;;;;12.37;7.60;;;18.50;99.90;;;;;;5073511;28;20290;-79
2021/09/09 03:05:48;;;;;;;10.23;7.40;;;18.50;99.90;;;;;;5073883;28;20222;-79
2021/09/09 03:08:16;;;;;;;10.93;7.10;;;18.50;99.90;;;;;;5072981;28;20290;-79
2021/09/09 03:10:43;;;;;;;12.07;7.90;;;18.50;99.90;;;;;;5072792;28;20877;-79
2021/09/09 03:13:10;;;;;;;12.60;7.90;;;18.60;99.90;;;;;;5072285;28;20290;-79
2021/09/09 03:15:36;;;;;;;12.43;7.17;;;18.60;99.90;;;;;;5073332;28;20291;-79
2021/09/09 03:18:04;;;;;;;10.73;7.23;;;18.60;99.90;;;;;;5073051;28;20282;-80
2021/09/09 03:20:31;;;;;;;9.67;6.83;;;18.60;99.90;;;;;;5073418;28;20246;-79
2021/09/09 03:22:57;;;;;;;13.80;7.67;;;18.60;99.90;;;;;;5073184;28;20286;-79
2021/09/09 03:25:26;;;;;;;9.83;7.67;;;18.70;99.90;;;;;;5072919;28;20206;-79
2021/09/09 03:27:53;;;;;;;11.83;7.67;;;18.70;99.90;;;;;;5073313;28;20290;-79
2021/09/09 03:30:20;;;;;;;14.83;8.17;;;18.60;99.90;;;;;;5073082;28;20196;-79
2021/09/09 03:32:47;;;;;;;13.07;7.43;;;18.70;99.90;;;;;;5072979;28;20315;-79
2021/09/09 03:35:13;;;;;;;12.97;7.60;;;18.70;99.90;;;;;;5072880;28;20659;-79
2021/09/09 03:37:40;;;;;;;14.90;8.80;;;18.70;99.90;;;;;;5073094;28;20286;-79
2021/09/09 03:40:08;;;;;;;11.23;7.40;;;18.70;99.90;;;;;;5072820;28;20242;-79
2021/09/09 03:42:36;;;;;;;12.90;8.03;;;18.70;99.90;;;;;;5075974;28;20234;-79
2021/09/09 03:45:04;;;;;;;12.67;8.17;;;18.70;99.90;;;;;;5077772;28;20282;-79
2021/09/09 03:47:31;;;;;;;12.80;8.40;;;18.60;99.90;;;;;;5072975;28;20282;-79
2021/09/09 03:49:57;;;;;;;16.73;8.83;;;18.70;99.90;;;;;;5072857;28;20287;-79
2021/09/09 03:52:24;;;;;;;11.67;7.30;;;18.90;99.90;;;;;;5072875;28;20302;-78
2021/09/09 03:54:52;;;;;;;12.73;8.47;;;18.90;99.90;;;;;;5072969;28;20234;-79
2021/09/09 03:57:18;;;;;;;16.47;8.03;;;18.90;99.90;;;;;;5072650;28;20211;-78
2021/09/09 03:59:47;;;;;;;12.40;8.87;;;19.00;99.90;;;;;;5072782;28;20202;-78
2021/09/09 04:02:13;;;;;;;12.53;7.93;;;19.00;99.90;;;;;;5073033;28;20199;-79
2021/09/09 04:04:40;;;;;;;15.60;9.33;;;19.10;99.90;;;;;;5072575;28;20282;-79
2021/09/09 04:07:07;;;;;;;10.67;8.20;;;19.10;99.90;;;;;;5072415;28;20727;-79
2021/09/09 04:09:36;;;;;;;14.20;8.60;;;19.10;99.90;;;;;;5072298;28;20214;-79
2021/09/09 04:12:03;;;;;;;13.67;8.07;;;19.10;99.90;;;;;;5072677;28;20700;-79
2021/09/09 04:14:31;;;;;;;15.13;8.70;;;19.10;99.90;;;;;;5072327;28;20290;-78
2021/09/09 04:16:59;;;;;;;14.60;8.90;;;19.10;99.90;;;;;;5072785;28;20710;-78
2021/09/09 04:19:26;;;;;;;13.70;8.87;;;19.00;99.90;;;;;;5072971;28;20302;-79
2021/09/09 04:21:54;;;;;;;18.97;8.73;;;19.00;99.90;;;;;;5072756;28;20200;-79
2021/09/09 04:24:21;;;;;;;20.77;9.20;;;19.00;99.90;;;;;;5075855;28;20290;-79
2021/09/09 04:26:48;;;;;;;17.17;9.30;;;19.00;99.90;;;;;;5076496;28;20211;-79
2021/09/09 04:29:15;;;;;;;13.97;9.07;;;19.10;99.90;;;;;;5076743;28;20203;-79
2021/09/09 04:31:42;;;;;;;12.30;9.23;;;19.10;99.90;;;;;;5075831;28;20646;-79
2021/09/09 04:34:11;;;;;;;15.00;9.20;;;19.10;99.90;;;;;;5076291;28;20688;-79
2021/09/09 04:36:38;;;;;;;19.87;9.53;;;19.20;99.90;;;;;;5076272;28;20234;-79
2021/09/09 04:39:04;;;;;;;12.57;9.17;;;19.10;99.90;;;;;;5076244;28;20284;-79
2021/09/09 04:41:31;;;;;;;14.87;10.40;;;19.10;99.90;;;;;;5075664;28;20296;-78
2021/09/09 04:43:58;;;;;;;18.77;10.23;;;19.20;99.90;;;;;;5076103;28;20731;-79
2021/09/09 04:46:25;;;;;;;15.27;9.67;;;19.30;99.90;;;;;;5075887;28;20561;-79
2021/09/09 04:48:52;;;;;;;15.60;10.17;;;19.30;99.90;;;;;;5075794;28;20211;-79
2021/09/09 04:51:20;;;;;;;16.07;10.10;;;19.30;99.90;;;;;;5072988;28;20321;-79
2021/09/09 04:53:47;;;;;;;18.60;10.00;;;19.30;99.90;;;;;;5075360;28;20287;-79
2021/09/09 04:56:14;;;;;;;15.77;10.37;;;19.30;99.90;;;;;;5075406;28;20291;-79
2021/09/09 04:58:41;;;;;;;19.30;10.67;;;19.40;99.90;;;;;;5063216;28;20196;-79
2021/09/09 05:01:08;;;;;;;16.50;10.30;;;19.50;99.90;;;;;;5075907;28;20560;-79
2021/09/09 05:03:34;;;;;;;15.27;10.47;;;19.60;99.90;;;;;;5073659;28;20295;-79
2021/09/09 05:06:01;;;;;;;18.27;11.10;;;19.60;99.90;;;;;;5072816;28;20199;-79
2021/09/09 05:08:30;;;;;;;21.07;11.47;;;19.70;99.90;;;;;;5075870;28;20282;-79
2021/09/09 05:10:57;;;;;;;18.70;11.63;;;19.80;99.90;;;;;;5075908;28;20232;-79
2021/09/09 05:13:23;;;;;;;16.60;11.30;;;19.90;99.90;;;;;;5074024;28;20691;-80
2021/09/09 05:15:50;;;;;;;14.67;11.17;;;20.10;99.90;;;;;;5074565;28;20307;-79
2021/09/09 05:18:17;;;;;;;19.00;11.33;;;20.20;99.90;;;;;;5075505;28;20302;-79
2021/09/09 05:20:44;;;;;;;15.77;11.37;;;20.30;99.90;;;;;;5075328;28;20739;-79
2021/09/09 05:23:14;;;;;;;14.97;11.27;;;20.40;99.90;;;;;;5071708;28;20200;-78
2021/09/09 05:25:44;;;;;;;23.27;12.73;;;20.40;99.90;;;;;;5074876;28;20191;-79
2021/09/09 05:28:11;;;;;;;16.63;12.37;;;20.40;99.90;;;;;;5072672;28;20211;-79
2021/09/09 05:30:38;;;;;;;19.53;12.40;;;20.50;99.90;;;;;;5074178;28;20290;-80
2021/09/09 05:33:05;;;;;;;18.30;12.87;;;20.60;99.90;;;;;;5072298;28;20273;-80
2021/09/09 05:35:32;;;;;;;19.70;12.13;;;20.70;99.90;;;;;;5064926;28;20278;-80
2021/09/09 05:37:59;;;;;;;16.87;12.00;;;20.90;99.90;;;;;;5061767;28;20288;-79
2021/09/09 05:40:26;;;;;;;25.17;12.57;;;21.00;99.90;;;;;;5073429;28;20683;-79
2021/09/09 05:42:54;;;;;;;19.20;12.33;;;21.10;99.90;;;;;;5071469;28;20672;-79
2021/09/09 05:45:21;;;;;;;17.80;12.67;;;21.20;99.90;;;;;;5072812;28;20229;-81
2021/09/09 05:47:48;;;;;;;22.27;13.20;;;21.30;99.90;;;;;;5073787;28;20268;-81
2021/09/09 05:50:17;;;;;;;15.63;12.47;;;21.40;99.90;;;;;;5074250;28;20206;-81
2021/09/09 05:52:44;;;;;;;21.73;13.73;;;21.50;99.90;;;;;;5074889;28;20223;-80
2021/09/09 05:55:11;;;;;;;20.67;12.77;;;21.50;99.90;;;;;;5075012;28;20288;-80
2021/09/09 05:57:38;;;;;;;16.13;12.77;;;21.60;99.90;;;;;;5074336;28;20284;-80
2021/09/09 06:00:09;;;;;;;20.38;12.57;;;21.60;99.90;;;;;;5074424;28;20223;-81
2021/09/09 06:02:42;;;;;;;23.60;14.07;;;21.70;99.90;;;;;;5074282;28;20282;-80
2021/09/09 06:05:09;;;;;;;18.63;12.82;;;21.70;99.90;;;;;;5074363;28;20195;-80
2021/09/09 06:07:36;;;;;;;20.15;13.63;;;21.80;99.90;;;;;;5074409;28;20294;-81
2021/09/09 06:10:04;;;;;;;22.73;14.13;;;21.80;99.90;;;;;;5073566;28;20306;-79
2021/09/09 06:12:31;;;;;;;17.30;13.60;;;21.80;99.90;;;;;;5074296;28;20605;-80
2021/09/09 06:14:57;;;;;;;25.08;13.18;;;21.80;99.90;;;;;;5074112;28;20241;-79
2021/09/09 06:17:26;;;;;;;19.77;13.13;;;21.80;99.90;;;;;;5074367;28;20238;-78
2021/09/09 06:19:53;;;;;;;19.27;12.30;;;21.90;99.90;;;;;;5074541;28;20226;-80
2021/09/09 06:22:19;;;;;;;19.05;12.68;;;21.90;99.90;;;;;;5074484;28;20287;-80
2021/09/09 06:24:46;;;;;;;20.85;12.73;;;21.80;99.90;;;;;;5074586;28;20257;-80
2021/09/09 06:27:13;;;;;;;20.20;12.45;;;21.90;99.90;;;;;;5074604;28;20556;-79
2021/09/09 06:29:40;;;;;;;19.50;13.00;;;21.90;99.90;;;;;;5074566;28;20310;-80
2021/09/09 06:32:08;;;;;;;17.00;11.90;;;21.90;99.90;;;;;;5074037;28;20223;-80
2021/09/09 06:34:36;;;;;;;21.08;12.75;;;22.00;99.90;;;;;;5074249;28;20651;-80
2021/09/09 06:37:03;;;;;;;18.83;13.38;;;22.00;99.90;;;;;;5073943;28;20199;-79
2021/09/09 06:39:30;;;;;;;17.02;12.65;;;22.00;99.90;;;;;;5073805;28;20654;-80
2021/09/09 06:41:57;;;;;;;15.85;12.20;;;22.10;99.90;;;;;;5073910;28;20526;-81
2021/09/09 06:44:24;;;;;;;19.67;12.80;;;22.20;99.90;;;;;;5074174;28;20291;-80
2021/09/09 06:46:52;;;;;;;27.98;12.70;;;22.20;99.90;;;;;;5073850;28;20210;-80
2021/09/09 06:49:19;;;;;;;26.40;12.35;;;22.20;99.90;;;;;;5073929;28;20206;-80
2021/09/09 06:51:48;;;;;;;15.65;12.40;;;22.20;99.90;;;;;;5084338;28;20207;-79
2021/09/09 06:54:16;;;;;;;17.95;12.07;;;22.20;99.90;;;;;;5075522;28;20206;-80
2021/09/09 06:56:43;;;;;;;18.33;12.77;;;22.20;99.90;;;;;;5073640;28;20199;-81
2021/09/09 06:59:09;;;;;;;17.13;12.90;;;22.10;99.90;;;;;;5073541;28;20290;-80
2021/09/09 07:01:36;;;;;;;18.55;12.73;;;22.10;99.90;;;;;;5073518;28;20299;-79
2021/09/09 07:04:04;;;;;;;20.48;13.05;;;22.10;99.90;;;;;;5073702;28;20192;-80
2021/09/09 07:06:31;;;;;;;19.70;13.82;;;22.20;99.90;;;;;;5073702;28;20195;-80
2021/09/09 07:08:59;;;;;;;21.75;13.88;;;22.20;99.90;;;;;;5073531;28;20672;-80
2021/09/09 07:11:26;;;;;;;18.88;12.88;;;22.20;99.90;;;;;;5073108;28;20632;-80
2021/09/09 07:13:53;;;;;;;20.33;13.80;;;22.10;99.90;;;;;;5073294;28;20223;-80
2021/09/09 07:16:20;;;;;;;25.58;13.98;;;22.10;99.90;;;;;;5073315;28;20339;-80
2021/09/09 07:18:46;;;;;;;21.48;14.02;;;22.10;99.90;;;;;;5073647;28;20258;-80
2021/09/09 07:21:13;;;;;;;22.85;13.95;;;22.00;99.90;;;;;;5073172;28;20284;-80
2021/09/09 07:23:41;;;;;;;20.77;14.10;;;22.00;99.90;;;;;;5073321;28;20740;-80
2021/09/09 07:26:09;;;;;;;19.48;13.75;;;21.90;99.90;;;;;;5073184;28;20195;-80
2021/09/09 07:28:36;;;;;;;19.45;13.50;;;21.90;99.90;;;;;;5073175;28;20199;-80
2021/09/09 07:31:03;;;;;;;21.55;13.70;;;22.00;99.90;;;;;;5073466;28;20227;-80
2021/09/09 07:33:30;;;;;;;19.35;13.32;;;22.00;99.90;;;;;;5072844;28;20223;-80
2021/09/09 07:35:57;;;;;;;24.58;13.77;;;22.10;99.90;;;;;;5073350;28;20222;-79
2021/09/09 07:38:24;;;;;;;20.52;13.77;;;22.30;99.90;;;;;;5073059;28;20278;-79
2021/09/09 07:40:50;;;;;;;19.55;13.20;;;22.30;99.90;;;;;;5069107;28;20290;-80
2021/09/09 07:43:19;;;;;;;17.73;13.40;;;22.50;99.90;;;;;;5072945;28;20287;-80
2021/09/09 07:45:46;;;;;;;15.70;12.05;;;22.60;99.90;;;;;;5071731;28;20282;-80
2021/09/09 07:48:13;;;;;;;19.58;11.95;;;22.90;99.90;;;;;;5073018;28;20644;-79
2021/09/09 07:50:40;;;;;;;16.70;12.23;;;23.10;99.90;;;;;;5073140;28;20231;-80
2021/09/09 07:53:07;;;;;;;17.60;11.75;;;23.10;99.90;;;;;;5072936;28;20269;-80
2021/09/09 07:55:34;;;;;;;17.77;11.50;;;23.10;99.90;;;;;;5073087;28;20278;-80
2021/09/09 07:58:01;;;;;;;16.95;11.45;;;23.20;99.90;;;;;;5072141;28;20221;-80
2021/09/09 08:00:29;;;;;;;12.40;10.60;;;23.20;99.90;;;;;;5073109;28;20282;-80
2021/09/09 08:02:56;;;;;;;15.30;10.77;;;23.20;99.90;;;;;;5073073;28;20286;-80
2021/09/09 08:05:23;;;;;;;17.00;12.07;;;23.30;99.90;;;;;;5072915;28;20242;-80
2021/09/09 08:07:50;;;;;;;16.02;11.25;;;23.20;99.90;;;;;;5073066;28;20235;-80
2021/09/09 08:10:18;;;;;;;14.82;11.20;;;23.20;99.90;;;;;;5072731;28;20203;-80
2021/09/09 08:12:46;;;;;;;16.02;11.18;;;23.20;99.90;;;;;;5072568;28;20310;-80
2021/09/09 08:15:14;;;;;;;15.02;11.20;;;23.20;99.90;;;;;;5073070;28;20250;-80
2021/09/09 08:17:42;;;;;;;15.82;11.00;;;23.10;99.90;;;;;;5073074;28;20287;-79
2021/09/09 08:20:11;;;;;;;16.17;10.80;;;23.20;99.90;;;;;;5072695;28;20231;-80
2021/09/09 08:22:39;;;;;;;14.32;10.73;;;23.40;99.90;;;;;;5072971;28;20281;-79
2021/09/09 08:25:06;;;;;;;13.65;9.98;;;23.50;99.90;;;;;;5072968;28;20282;-79
2021/09/09 08:27:33;;;;;;;15.65;10.18;;;23.70;99.90;;;;;;5072858;28;20282;-80
2021/09/09 08:30:00;;;;;;;14.15;9.90;;;23.70;99.90;;;;;;5072645;28;20739;-80
2021/09/09 08:32:27;;;;;;;12.43;9.88;;;23.80;99.90;;;;;;5072613;28;20314;-80
2021/09/09 08:34:57;;;;;;;12.90;10.07;;;23.90;99.90;;;;;;5072969;28;20282;-81
2021/09/09 08:37:25;;;;;;;12.20;9.82;;;23.90;99.90;;;;;;5073084;28;20231;-80
2021/09/09 08:39:52;;;;;;;13.93;10.18;;;24.00;99.90;;;;;;5072126;28;20252;-80
2021/09/09 08:42:19;;;;;;;14.13;9.85;;;24.00;99.90;;;;;;5072649;28;20282;-80
2021/09/09 08:44:47;;;;;;;14.05;9.70;;;24.10;99.90;;;;;;5073153;28;20209;-80
2021/09/09 08:47:15;;;;;;;13.15;9.40;;;24.30;99.90;;;;;;5072643;28;20202;-80
2021/09/09 08:49:42;;;;;;;10.95;9.30;;;24.30;99.90;;;;;;5072875;28;20196;-81
2021/09/09 08:52:11;;;;;;;12.82;9.70;;;24.50;99.90;;;;;;5072702;28;20227;-80
2021/09/09 08:54:38;;;;;;;13.30;9.27;;;24.70;99.90;;;;;;5072038;28;20200;-80
2021/09/09 08:57:05;;;;;;;12.55;9.25;;;25.10;99.90;;;;;;5072095;28;20287;-80
2021/09/09 08:59:33;;;;;;;12.48;9.23;;;25.70;99.90;;;;;;5071647;28;20192;-80
2021/09/09 09:02:05;;;;;;;13.45;9.02;;;26.50;99.90;;;;;;5062276;28;20711;-80
2021/09/09 09:04:33;;;;;;;11.85;8.50;;;27.50;99.90;;;;;;5072376;28;20269;-80
2021/09/09 09:07:01;;;;;;;11.30;9.00;;;27.80;99.90;;;;;;5071562;28;20200;-80
2021/09/09 09:09:32;;;;;;;11.65;9.00;;;28.50;99.90;;;;;;5072281;28;20206;-80
2021/09/09 09:11:59;;;;;;;14.00;9.88;;;29.00;99.90;;;;;;5070170;28;20649;-80
2021/09/09 09:14:26;;;;;;;11.82;9.52;;;29.10;99.90;;;;;;5065316;28;20222;-80
2021/09/09 09:16:55;;;;;;;17.38;10.52;;;29.00;99.90;;;;;;5074443;28;20196;-80
2021/09/09 09:19:24;;;;;;;13.55;10.43;;;28.20;99.90;;;;;;5064824;28;20195;-79
2021/09/09 09:21:54;;;;;;;11.40;9.98;;;27.80;99.90;;;;;;5075109;28;20222;-80
2021/09/09 09:24:22;;;;;;;12.15;9.65;;;27.70;99.90;;;;;;5073508;28;20282;-80
2021/09/09 09:27:11;;;;;;;16.00;11.05;;;27.90;99.90;;;;;;5075301;28;20226;-80
2021/09/09 09:29:39;;;;;;;13.75;10.80;;;27.80;99.90;;;;;;5058463;28;20269;-78
2021/09/09 09:32:14;;;;;;;14.50;11.27;;;27.50;99.90;;;;;;5072883;28;20229;-79
2021/09/09 09:34:42;;;;;;;15.02;10.55;;;28.00;99.90;;;;;;5074914;28;20299;-79
2021/09/09 09:37:10;;;;;;;15.18;10.57;;;28.70;99.90;;;;;;5075606;28;20203;-80
2021/09/09 09:39:37;;;;;;;14.63;10.40;;;28.70;99.90;;;;;;5057461;28;20206;-80
2021/09/09 09:42:06;;;;;;;14.77;10.98;;;28.50;99.90;;;;;;5073111;28;20196;-80
2021/09/09 09:44:36;;;;;;;14.30;11.60;;;28.30;99.90;;;;;;5074096;28;20238;-80
2021/09/09 09:47:11;;;;;;;21.42;10.98;;;28.30;99.90;;;;;;5074396;28;20312;-79
2021/09/09 09:49:42;;;;;;;15.63;11.93;;;28.80;99.90;;;;;;5074356;28;20276;-80
2021/09/09 09:52:13;;;;;;;15.55;10.48;;;29.70;99.90;;;;;;5075878;28;20202;-80
2021/09/09 09:54:51;;;;;;;16.55;10.85;;;30.90;99.90;;;;;;5070770;28;20247;-80
2021/09/09 09:57:18;;;;;;;15.55;10.60;;;31.30;99.90;;;;;;5067572;28;20195;-80
2021/09/09 09:59:46;;;;;;;14.77;11.30;;;31.40;99.90;;;;;;5074006;28;20203;-80
2021/09/09 10:02:14;;;;;;;11.98;10.50;;;30.80;99.90;;;;;;5073413;28;20214;-80
2021/09/09 10:04:43;;;;;;;13.90;10.15;;;30.80;99.90;;;;;;5073679;28;20286;-80
2021/09/09 10:07:11;;;;;;;12.80;9.38;;;30.40;99.90;;;;;;5074829;28;20207;-80
2021/09/09 10:09:39;;;;;;;14.30;9.25;;;30.10;99.90;;;;;;5074002;28;20284;-78
2021/09/09 10:12:07;;;;;;;11.85;8.43;;;30.80;99.90;;;;;;5074456;28;20195;-78
2021/09/09 10:14:34;;;;;;;12.35;8.43;;;32.00;99.90;;;;;;5073610;28;20310;-80
2021/09/09 10:17:03;;;;;;;12.65;9.07;;;32.90;99.90;;;;;;5074680;28;20198;-80
2021/09/09 10:19:32;;;;;;;12.15;8.30;;;33.10;99.90;;;;;;5073045;28;20290;-80
2021/09/09 10:22:12;;;;;;;12.18;8.43;;;33.30;99.90;;;;;;5073530;28;20284;-81
2021/09/09 10:24:41;;;;;;;11.50;7.97;;;33.20;99.90;;;;;;5073540;28;20203;-80
2021/09/09 10:27:34;;;;;;;10.10;8.52;;;33.10;99.90;;;;;;5065087;28;20223;-80
2021/09/09 10:30:04;;;;;;;12.13;8.95;;;33.20;99.90;;;;;;5079219;28;20259;-78
2021/09/09 10:32:56;;;;;;;11.52;8.70;;;32.60;99.90;;;;;;5072495;28;20246;-79
2021/09/09 10:35:39;;;;;;;10.25;7.40;;;32.30;99.90;;;;;;5074816;28;20203;-80
2021/09/09 10:38:44;;;;;;;11.52;9.10;;;32.50;99.90;;;;;;5072971;28;20211;-79
2021/09/09 10:41:28;;;;;;;14.25;9.10;;;32.20;99.90;;;;;;5074881;28;20211;-79
2021/09/09 10:43:59;;;;;;;17.00;9.40;;;31.60;99.90;;;;;;5062639;28;20657;-79
2021/09/09 10:46:32;;;;;;;11.13;8.73;;;31.10;99.90;;;;;;5059586;28;20195;-79
2021/09/09 10:49:18;;;;;;;9.32;8.02;;;30.60;99.90;;;;;;5068286;28;20251;-79
2021/09/09 10:52:11;;;;;;;10.90;8.25;;;30.30;99.90;;;;;;5073956;28;20205;-79
2021/09/09 10:55:02;;;;;;;11.02;8.18;;;30.60;99.90;;;;;;5075041;28;20215;-77
2021/09/09 10:57:29;;;;;;;9.55;8.05;;;30.40;99.90;;;;;;5066518;28;20215;-80
2021/09/09 10:59:57;;;;;;;10.15;8.30;;;29.90;99.90;;;;;;5064584;28;20311;-79
2021/09/09 11:02:24;;;;;;;13.68;8.60;;;30.00;99.90;;;;;;5069905;28;20290;-79
2021/09/09 11:04:52;;;;;;;11.48;7.55;;;30.20;99.90;;;;;;5071968;28;20290;-78
2021/09/09 11:07:24;;;;;;;11.15;8.05;;;30.30;99.90;;;;;;5058210;28;20235;-80
2021/09/09 11:10:01;;;;;;;8.75;7.85;;;30.80;99.90;;;;;;5065046;28;20286;-80
2021/09/09 11:12:34;;;;;;;10.90;8.18;;;30.80;99.90;;;;;;5073669;28;20203;-80
2021/09/09 11:15:03;;;;;;;10.07;8.63;;;30.70;99.90;;;;;;5073016;28;20300;-80
2021/09/09 11:17:30;;;;;;;9.18;7.70;;;30.40;99.90;;;;;;5072556;28;20196;-80
2021/09/09 11:20:03;;;;;;;11.18;8.50;;;30.40;99.90;;;;;;5072183;28;20191;-79
2021/09/09 11:22:30;;;;;;;12.23;8.10;;;30.30;99.90;;;;;;5073004;28;20616;-80
2021/09/09 11:24:59;;;;;;;8.73;7.65;;;30.20;99.90;;;;;;5071362;28;20299;-79
2021/09/09 11:27:30;;;;;;;10.68;8.13;;;30.00;99.90;;;;;;5046986;28;20200;-79
2021/09/09 11:29:58;;;;;;;10.40;7.47;;;29.80;99.90;;;;;;5064882;28;20226;-79
2021/09/09 11:32:25;;;;;;;8.77;6.82;;;30.10;99.90;;;;;;5066545;28;20231;-79
2021/09/09 11:34:53;;;;;;;10.50;6.55;;;30.60;99.90;;;;;;5069664;28;20306;-79
2021/09/09 11:37:22;;;;;;;8.63;6.13;;;30.90;99.90;;;;;;5069828;28;20199;-79
2021/09/09 11:39:49;;;;;;;11.02;6.18;;;30.80;99.90;;;;;;5069473;28;20292;-79
2021/09/09 11:42:16;;;;;;;12.00;7.05;;;30.60;99.90;;;;;;5064020;28;20206;-79
2021/09/09 11:44:43;;;;;;;8.48;6.47;;;30.30;99.90;;;;;;5070554;28;20199;-79
2021/09/09 11:47:11;;;;;;;9.50;6.38;;;30.30;99.90;;;;;;5070671;28;20202;-79
2021/09/09 11:49:38;;;;;;;7.80;6.43;;;30.30;99.90;;;;;;5068964;28;20213;-79
2021/09/09 11:52:10;;;;;;;9.13;6.28;;;30.00;99.90;;;;;;5068301;28;20708;-79
2021/09/09 11:54:39;;;;;;;8.40;5.00;;;29.80;99.90;;;;;;5068443;28;20250;-79
2021/09/09 11:57:09;;;;;;;9.13;5.15;;;30.20;99.90;;;;;;5071048;28;20207;-79
2021/09/09 11:59:37;;;;;;;8.77;5.70;;;30.80;99.90;;;;;;5067768;28;20730;-79
2021/09/09 12:02:07;;;;;;;6.65;5.47;;;31.20;99.90;;;;;;5070948;28;20197;-79
2021/09/09 12:04:38;;;;;;;11.48;6.72;;;31.60;99.90;;;;;;5070613;28;20298;-79
2021/09/09 12:07:06;;;;;;;8.52;5.80;;;31.60;99.90;;;;;;5069400;28;20207;-79
2021/09/09 12:09:37;;;;;;;10.45;5.63;;;31.90;99.90;;;;;;5069288;28;20254;-79
2021/09/09 12:12:08;;;;;;;8.13;5.47;;;31.80;99.90;;;;;;5071533;28;20244;-79
2021/09/09 12:14:36;;;;;;;10.02;5.00;;;31.80;99.90;;;;;;5068393;28;20219;-80
2021/09/09 12:17:11;;;;;;;6.03;5.43;;;31.90;99.90;;;;;;5069616;28;20735;-80
2021/09/09 12:19:59;;;;;;;9.77;5.97;;;32.00;99.90;;;;;;5068755;28;20329;-79
2021/09/09 12:22:44;;;;;;;8.77;5.85;;;31.90;99.90;;;;;;5070788;28;20200;-80
2021/09/09 12:25:19;;;;;;;9.82;5.22;;;32.20;99.90;;;;;;5066751;28;20664;-80
2021/09/09 12:28:02;;;;;;;6.68;5.70;;;32.00;99.90;;;;;;5071613;28;20286;-80
2021/09/09 12:30:31;;;;;;;12.98;6.35;;;32.00;99.90;;;;;;5069808;28;20223;-80
2021/09/09 12:32:58;;;;;;;8.32;5.80;;;32.10;99.90;;;;;;5070490;28;20265;-80
2021/09/09 12:35:26;;;;;;;11.90;6.80;;;31.90;99.90;;;;;;5060351;28;20318;-80
2021/09/09 12:38:04;;;;;;;9.07;6.15;;;31.80;99.90;;;;;;5070774;28;20278;-79
2021/09/09 12:40:43;;;;;;;9.27;6.05;;;31.50;99.90;;;;;;5069606;28;20269;-79